LLBG

Ben Gurion International Airport

Tel Aviv, Israel
TAF LLBG 181110Z 1812/1912 30010KT 9999 FEW040 BECMG 1816/1818 VRB04KT FEW025 BECMG 1905/1907 30010KT CAVOK TX29/1812Z TN21/1903Z
Issued Valid From Valid To
Jun-18 @ 11:10 UTC
(2 hours ago)
Jun-18 @ 12:00 UTC
(an hour ago)
Jun-19 @ 12:00 UTC
(in 23 hours)
Jun-18 @ 12:00 to Jun-18 @ 16:00
TAF LLBG 181110Z 1812/1912 30010KT 9999 FEW040
Wind Visibility Clouds
300° at 10 knots 10,000+ meters
  • Few at 4,000' AGL
Becoming Jun-18 @ 16:00 to Jun-19 @ 05:00
BECMG 1816/1818 VRB04KT FEW025
Wind Visibility Clouds
Variable at 4 knots 10,000+ meters
  • Few at 2,500' AGL
Becoming Jun-19 @ 05:00 to Jun-19 @ 12:00
BECMG 1905/1907 30010KT CAVOK TX29/1812Z TN21/1903Z
Wind Visibility Clouds
300° at 10 knots 10,000+ meters
  • No significant clouds
TAF LLBG 181110Z 1812/1912 30010KT 9999 FEW040 BECMG 1816/1818 VRB04KT FEW025 BECMG 1905/1907 30010KT CAVOK TX29/1812Z TN21/1903Z
Issued Jun-18 @ 11:10 UTC
(2 hours ago)
Valid From Jun-18 @ 12:00 UTC
(an hour ago)
Valid To Jun-19 @ 12:00 UTC
(in 23 hours)
Jun-18 @ 12:00 - Jun-18 @ 16:00
Wind Visibility
300° at 10 knots 10,000+ meters
Clouds
  • Few at 4,000' AGL
Becoming Jun-18 @ 16:00 - Jun-19 @ 05:00
Wind Visibility
Variable at 4 knots 10,000+ meters
Clouds
  • Few at 2,500' AGL
Becoming Jun-19 @ 05:00 - Jun-19 @ 12:00
Wind Visibility
300° at 10 knots 10,000+ meters
Clouds
  • No significant clouds